sensor_id;sensor_type;location;lat;lon;timestamp;P1;durP1;ratioP1;P2;durP2;ratioP2
17915;SDS011;9083;49.156;8.982;2022-11-15T00:01:36;5.17;;;3.70;;
17915;SDS011;9083;49.156;8.982;2022-11-15T00:04:03;7.40;;;3.87;;
17915;SDS011;9083;49.156;8.982;2022-11-15T00:06:31;6.40;;;4.43;;
17915;SDS011;9083;49.156;8.982;2022-11-15T00:08:58;11.03;;;4.97;;
17915;SDS011;9083;49.156;8.982;2022-11-15T00:11:24;5.47;;;3.93;;
17915;SDS011;9083;49.156;8.982;2022-11-15T00:13:51;7.10;;;4.00;;
17915;SDS011;9083;49.156;8.982;2022-11-15T00:16:20;7.00;;;4.17;;
17915;SDS011;9083;49.156;8.982;2022-11-15T00:18:47;7.10;;;4.27;;
17915;SDS011;9083;49.156;8.982;2022-11-15T00:21:13;4.97;;;3.90;;
17915;SDS011;9083;49.156;8.982;2022-11-15T00:23:41;7.47;;;3.97;;
17915;SDS011;9083;49.156;8.982;2022-11-15T00:26:10;5.17;;;4.03;;
17915;SDS011;9083;49.156;8.982;2022-11-15T00:28:37;10.63;;;4.63;;
17915;SDS011;9083;49.156;8.982;2022-11-15T00:31:04;7.70;;;4.83;;
17915;SDS011;9083;49.156;8.982;2022-11-15T00:33:31;7.47;;;4.20;;
17915;SDS011;9083;49.156;8.982;2022-11-15T00:36:01;6.40;;;4.37;;
17915;SDS011;9083;49.156;8.982;2022-11-15T00:38:30;8.20;;;4.37;;
17915;SDS011;9083;49.156;8.982;2022-11-15T00:40:57;6.33;;;4.10;;
17915;SDS011;9083;49.156;8.982;2022-11-15T00:43:24;5.93;;;4.27;;
17915;SDS011;9083;49.156;8.982;2022-11-15T00:45:50;7.10;;;4.17;;
17915;SDS011;9083;49.156;8.982;2022-11-15T00:48:17;5.47;;;3.93;;
17915;SDS011;9083;49.156;8.982;2022-11-15T00:50:43;9.97;;;4.40;;
17915;SDS011;9083;49.156;8.982;2022-11-15T00:53:10;7.37;;;5.10;;
17915;SDS011;9083;49.156;8.982;2022-11-15T00:55:36;7.47;;;4.50;;
17915;SDS011;9083;49.156;8.982;2022-11-15T00:58:10;7.10;;;4.53;;
17915;SDS011;9083;49.156;8.982;2022-11-15T01:00:36;4.37;;;3.97;;
17915;SDS011;9083;49.156;8.982;2022-11-15T01:03:03;4.87;;;4.20;;
17915;SDS011;9083;49.156;8.982;2022-11-15T01:05:29;4.83;;;4.30;;
17915;SDS011;9083;49.156;8.982;2022-11-15T01:07:56;7.67;;;4.27;;
17915;SDS011;9083;49.156;8.982;2022-11-15T01:10:22;6.33;;;4.10;;
17915;SDS011;9083;49.156;8.982;2022-11-15T01:12:50;5.83;;;4.63;;
17915;SDS011;9083;49.156;8.982;2022-11-15T01:15:18;5.57;;;4.20;;
17915;SDS011;9083;49.156;8.982;2022-11-15T01:17:45;6.20;;;4.10;;
17915;SDS011;9083;49.156;8.982;2022-11-15T01:20:11;4.57;;;3.93;;
17915;SDS011;9083;49.156;8.982;2022-11-15T01:22:38;5.17;;;3.60;;
17915;SDS011;9083;49.156;8.982;2022-11-15T01:25:04;4.97;;;4.23;;
17915;SDS011;9083;49.156;8.982;2022-11-15T01:27:31;4.53;;;3.67;;
17915;SDS011;9083;49.156;8.982;2022-11-15T01:29:57;4.87;;;3.67;;
17915;SDS011;9083;49.156;8.982;2022-11-15T01:32:25;9.80;;;4.40;;
17915;SDS011;9083;49.156;8.982;2022-11-15T01:34:51;4.63;;;3.83;;
17915;SDS011;9083;49.156;8.982;2022-11-15T01:37:18;4.73;;;3.57;;
17915;SDS011;9083;49.156;8.982;2022-11-15T01:39:44;6.27;;;3.70;;
17915;SDS011;9083;49.156;8.982;2022-11-15T01:42:11;6.03;;;3.63;;
17915;SDS011;9083;49.156;8.982;2022-11-15T01:44:40;5.80;;;3.53;;
17915;SDS011;9083;49.156;8.982;2022-11-15T01:47:07;5.23;;;3.60;;
17915;SDS011;9083;49.156;8.982;2022-11-15T01:49:36;7.03;;;3.83;;
17915;SDS011;9083;49.156;8.982;2022-11-15T01:52:05;3.73;;;3.30;;
17915;SDS011;9083;49.156;8.982;2022-11-15T01:54:32;3.47;;;3.17;;
17915;SDS011;9083;49.156;8.982;2022-11-15T01:56:59;6.37;;;3.53;;
17915;SDS011;9083;49.156;8.982;2022-11-15T01:59:27;5.27;;;3.57;;
17915;SDS011;9083;49.156;8.982;2022-11-15T02:01:54;5.10;;;3.10;;
17915;SDS011;9083;49.156;8.982;2022-11-15T02:04:21;4.90;;;3.43;;
17915;SDS011;9083;49.156;8.982;2022-11-15T02:06:50;5.10;;;3.87;;
17915;SDS011;9083;49.156;8.982;2022-11-15T02:09:17;3.67;;;3.33;;
17915;SDS011;9083;49.156;8.982;2022-11-15T02:11:44;6.50;;;3.80;;
17915;SDS011;9083;49.156;8.982;2022-11-15T02:14:11;6.20;;;3.63;;
17915;SDS011;9083;49.156;8.982;2022-11-15T02:16:40;6.33;;;4.07;;
17915;SDS011;9083;49.156;8.982;2022-11-15T02:19:13;6.63;;;4.37;;
17915;SDS011;9083;49.156;8.982;2022-11-15T02:21:43;5.97;;;3.33;;
17915;SDS011;9083;49.156;8.982;2022-11-15T02:30:02;6.00;;;4.23;;
17915;SDS011;9083;49.156;8.982;2022-11-15T02:32:33;9.53;;;4.07;;
17915;SDS011;9083;49.156;8.982;2022-11-15T02:35:07;8.60;;;4.03;;
17915;SDS011;9083;49.156;8.982;2022-11-15T02:37:39;5.83;;;4.20;;
17915;SDS011;9083;49.156;8.982;2022-11-15T02:40:11;5.07;;;3.83;;
17915;SDS011;9083;49.156;8.982;2022-11-15T02:42:39;4.03;;;3.17;;
17915;SDS011;9083;49.156;8.982;2022-11-15T02:45:28;4.47;;;3.33;;
17915;SDS011;9083;49.156;8.982;2022-11-15T02:47:57;9.03;;;4.53;;
17915;SDS011;9083;49.156;8.982;2022-11-15T02:50:25;9.63;;;4.30;;
17915;SDS011;9083;49.156;8.982;2022-11-15T02:52:53;8.47;;;4.60;;
17915;SDS011;9083;49.156;8.982;2022-11-15T02:55:26;9.87;;;4.83;;
17915;SDS011;9083;49.156;8.982;2022-11-15T02:57:56;8.10;;;4.07;;
17915;SDS011;9083;49.156;8.982;2022-11-15T03:00:24;8.13;;;3.63;;
17915;SDS011;9083;49.156;8.982;2022-11-15T03:02:59;5.87;;;4.07;;
17915;SDS011;9083;49.156;8.982;2022-11-15T03:05:30;6.67;;;4.20;;
17915;SDS011;9083;49.156;8.982;2022-11-15T03:08:02;8.87;;;3.80;;
17915;SDS011;9083;49.156;8.982;2022-11-15T03:10:32;5.67;;;3.60;;
17915;SDS011;9083;49.156;8.982;2022-11-15T03:13:03;7.67;;;3.83;;
17915;SDS011;9083;49.156;8.982;2022-11-15T03:15:36;3.00;;;2.80;;
17915;SDS011;9083;49.156;8.982;2022-11-15T03:18:06;4.40;;;3.43;;
17915;SDS011;9083;49.156;8.982;2022-11-15T03:20:36;4.37;;;3.17;;
17915;SDS011;9083;49.156;8.982;2022-11-15T03:23:04;3.57;;;3.27;;
17915;SDS011;9083;49.156;8.982;2022-11-15T03:25:31;6.27;;;3.00;;
17915;SDS011;9083;49.156;8.982;2022-11-15T03:27:59;5.57;;;3.77;;
17915;SDS011;9083;49.156;8.982;2022-11-15T03:30:27;6.87;;;3.40;;
17915;SDS011;9083;49.156;8.982;2022-11-15T03:32:54;5.53;;;4.13;;
17915;SDS011;9083;49.156;8.982;2022-11-15T03:35:23;5.50;;;4.17;;
17915;SDS011;9083;49.156;8.982;2022-11-15T03:37:51;5.87;;;3.53;;
17915;SDS011;9083;49.156;8.982;2022-11-15T03:40:19;3.73;;;3.43;;
17915;SDS011;9083;49.156;8.982;2022-11-15T03:42:48;4.97;;;3.60;;
17915;SDS011;9083;49.156;8.982;2022-11-15T03:45:19;8.47;;;3.53;;
17915;SDS011;9083;49.156;8.982;2022-11-15T03:47:48;5.73;;;3.43;;
17915;SDS011;9083;49.156;8.982;2022-11-15T03:50:16;3.60;;;3.30;;
17915;SDS011;9083;49.156;8.982;2022-11-15T03:52:45;3.60;;;3.30;;
17915;SDS011;9083;49.156;8.982;2022-11-15T03:55:13;3.60;;;3.20;;
17915;SDS011;9083;49.156;8.982;2022-11-15T03:57:39;5.10;;;3.60;;
17915;SDS011;9083;49.156;8.982;2022-11-15T04:00:06;4.60;;;3.67;;
17915;SDS011;9083;49.156;8.982;2022-11-15T04:02:33;3.97;;;3.20;;
17915;SDS011;9083;49.156;8.982;2022-11-15T04:04:59;4.33;;;3.60;;
17915;SDS011;9083;49.156;8.982;2022-11-15T04:07:26;5.00;;;2.93;;
17915;SDS011;9083;49.156;8.982;2022-11-15T04:09:53;3.80;;;3.47;;
17915;SDS011;9083;49.156;8.982;2022-11-15T04:12:29;3.50;;;3.20;;
17915;SDS011;9083;49.156;8.982;2022-11-15T04:14:59;4.50;;;3.90;;
17915;SDS011;9083;49.156;8.982;2022-11-15T04:17:35;4.30;;;3.90;;
17915;SDS011;9083;49.156;8.982;2022-11-15T04:20:02;10.40;;;5.50;;
17915;SDS011;9083;49.156;8.982;2022-11-15T04:22:46;12.23;;;6.83;;
17915;SDS011;9083;49.156;8.982;2022-11-15T04:25:31;14.57;;;6.60;;
17915;SDS011;9083;49.156;8.982;2022-11-15T04:27:58;15.60;;;7.87;;
17915;SDS011;9083;49.156;8.982;2022-11-15T04:30:24;11.03;;;6.60;;
17915;SDS011;9083;49.156;8.982;2022-11-15T04:32:51;9.33;;;5.83;;
17915;SDS011;9083;49.156;8.982;2022-11-15T04:35:17;9.87;;;5.50;;
17915;SDS011;9083;49.156;8.982;2022-11-15T04:37:43;7.97;;;5.63;;
17915;SDS011;9083;49.156;8.982;2022-11-15T04:40:10;12.23;;;6.03;;
17915;SDS011;9083;49.156;8.982;2022-11-15T04:42:38;9.77;;;6.53;;
17915;SDS011;9083;49.156;8.982;2022-11-15T04:45:06;9.00;;;7.27;;
17915;SDS011;9083;49.156;8.982;2022-11-15T04:47:33;10.33;;;7.13;;
17915;SDS011;9083;49.156;8.982;2022-11-15T04:49:59;8.43;;;6.67;;
17915;SDS011;9083;49.156;8.982;2022-11-15T04:52:26;14.47;;;8.73;;
17915;SDS011;9083;49.156;8.982;2022-11-15T04:54:52;13.87;;;8.00;;
17915;SDS011;9083;49.156;8.982;2022-11-15T04:57:18;9.73;;;7.83;;
17915;SDS011;9083;49.156;8.982;2022-11-15T04:59:46;8.13;;;5.90;;
17915;SDS011;9083;49.156;8.982;2022-11-15T05:02:13;7.10;;;6.13;;
17915;SDS011;9083;49.156;8.982;2022-11-15T05:04:39;7.97;;;4.80;;
17915;SDS011;9083;49.156;8.982;2022-11-15T05:07:05;4.27;;;3.60;;
17915;SDS011;9083;49.156;8.982;2022-11-15T05:09:31;4.87;;;4.10;;
17915;SDS011;9083;49.156;8.982;2022-11-15T05:11:58;7.27;;;4.73;;
17915;SDS011;9083;49.156;8.982;2022-11-15T05:14:24;4.50;;;4.07;;
17915;SDS011;9083;49.156;8.982;2022-11-15T05:16:52;5.63;;;5.10;;
17915;SDS011;9083;49.156;8.982;2022-11-15T05:19:18;8.80;;;4.23;;
17915;SDS011;9083;49.156;8.982;2022-11-15T05:21:45;7.37;;;4.73;;
17915;SDS011;9083;49.156;8.982;2022-11-15T05:24:11;5.97;;;4.33;;
17915;SDS011;9083;49.156;8.982;2022-11-15T05:26:37;6.77;;;4.17;;
17915;SDS011;9083;49.156;8.982;2022-11-15T05:29:04;6.47;;;4.80;;
17915;SDS011;9083;49.156;8.982;2022-11-15T05:31:30;4.83;;;4.00;;
17915;SDS011;9083;49.156;8.982;2022-11-15T05:33:58;5.43;;;4.43;;
17915;SDS011;9083;49.156;8.982;2022-11-15T05:36:27;4.83;;;3.87;;
17915;SDS011;9083;49.156;8.982;2022-11-15T05:38:54;3.47;;;3.20;;
17915;SDS011;9083;49.156;8.982;2022-11-15T05:41:22;6.50;;;4.27;;
17915;SDS011;9083;49.156;8.982;2022-11-15T05:43:52;7.50;;;4.87;;
17915;SDS011;9083;49.156;8.982;2022-11-15T05:46:18;5.07;;;3.83;;
17915;SDS011;9083;49.156;8.982;2022-11-15T05:48:46;4.20;;;3.80;;
17915;SDS011;9083;49.156;8.982;2022-11-15T05:51:15;6.77;;;3.63;;
17915;SDS011;9083;49.156;8.982;2022-11-15T05:53:42;6.53;;;4.20;;
17915;SDS011;9083;49.156;8.982;2022-11-15T05:56:09;5.70;;;4.57;;
17915;SDS011;9083;49.156;8.982;2022-11-15T05:58:36;4.30;;;3.67;;
17915;SDS011;9083;49.156;8.982;2022-11-15T06:01:02;5.37;;;3.73;;
17915;SDS011;9083;49.156;8.982;2022-11-15T06:03:29;4.70;;;3.43;;
17915;SDS011;9083;49.156;8.982;2022-11-15T06:05:56;9.17;;;4.03;;
17915;SDS011;9083;49.156;8.982;2022-11-15T06:08:24;4.57;;;4.27;;
17915;SDS011;9083;49.156;8.982;2022-11-15T06:10:50;3.90;;;3.40;;
17915;SDS011;9083;49.156;8.982;2022-11-15T06:13:17;4.27;;;3.60;;
17915;SDS011;9083;49.156;8.982;2022-11-15T06:15:43;6.17;;;3.77;;
17915;SDS011;9083;49.156;8.982;2022-11-15T06:18:10;4.07;;;3.47;;
17915;SDS011;9083;49.156;8.982;2022-11-15T06:20:36;4.27;;;3.47;;
17915;SDS011;9083;49.156;8.982;2022-11-15T06:23:03;4.60;;;3.73;;
17915;SDS011;9083;49.156;8.982;2022-11-15T06:25:31;4.00;;;3.50;;
17915;SDS011;9083;49.156;8.982;2022-11-15T06:27:58;4.23;;;3.83;;
17915;SDS011;9083;49.156;8.982;2022-11-15T06:30:25;4.67;;;3.23;;
17915;SDS011;9083;49.156;8.982;2022-11-15T06:32:51;11.13;;;4.10;;
17915;SDS011;9083;49.156;8.982;2022-11-15T06:35:18;3.53;;;3.20;;
17915;SDS011;9083;49.156;8.982;2022-11-15T06:37:44;8.17;;;4.73;;
17915;SDS011;9083;49.156;8.982;2022-11-15T06:40:11;6.87;;;4.27;;
17915;SDS011;9083;49.156;8.982;2022-11-15T06:42:39;7.00;;;4.60;;
17915;SDS011;9083;49.156;8.982;2022-11-15T06:45:05;16.20;;;7.83;;
17915;SDS011;9083;49.156;8.982;2022-11-15T06:47:32;18.13;;;8.73;;
17915;SDS011;9083;49.156;8.982;2022-11-15T06:49:58;20.10;;;9.00;;
17915;SDS011;9083;49.156;8.982;2022-11-15T06:52:25;17.10;;;8.40;;
17915;SDS011;9083;49.156;8.982;2022-11-15T06:54:51;11.10;;;7.10;;
17915;SDS011;9083;49.156;8.982;2022-11-15T06:57:21;12.83;;;6.70;;
17915;SDS011;9083;49.156;8.982;2022-11-15T06:59:55;21.13;;;7.67;;
17915;SDS011;9083;49.156;8.982;2022-11-15T07:02:21;12.33;;;7.00;;
17915;SDS011;9083;49.156;8.982;2022-11-15T07:04:48;13.53;;;6.77;;
17915;SDS011;9083;49.156;8.982;2022-11-15T07:07:14;21.90;;;10.80;;
17915;SDS011;9083;49.156;8.982;2022-11-15T07:09:41;14.07;;;8.63;;
17915;SDS011;9083;49.156;8.982;2022-11-15T07:12:08;18.87;;;10.33;;
17915;SDS011;9083;49.156;8.982;2022-11-15T07:14:34;10.67;;;4.57;;
17915;SDS011;9083;49.156;8.982;2022-11-15T07:17:04;5.53;;;4.03;;
17915;SDS011;9083;49.156;8.982;2022-11-15T07:19:31;8.37;;;5.57;;
17915;SDS011;9083;49.156;8.982;2022-11-15T07:21:57;8.43;;;3.97;;
17915;SDS011;9083;49.156;8.982;2022-11-15T07:24:24;7.50;;;4.07;;
17915;SDS011;9083;49.156;8.982;2022-11-15T07:26:50;5.30;;;3.50;;
17915;SDS011;9083;49.156;8.982;2022-11-15T07:29:17;4.60;;;3.47;;
17915;SDS011;9083;49.156;8.982;2022-11-15T07:31:43;8.97;;;3.70;;
17915;SDS011;9083;49.156;8.982;2022-11-15T07:34:11;6.47;;;4.10;;
17915;SDS011;9083;49.156;8.982;2022-11-15T07:36:37;8.70;;;4.70;;
17915;SDS011;9083;49.156;8.982;2022-11-15T07:39:04;6.43;;;4.07;;
17915;SDS011;9083;49.156;8.982;2022-11-15T07:41:30;4.07;;;3.63;;
17915;SDS011;9083;49.156;8.982;2022-11-15T07:43:57;5.77;;;3.33;;
17915;SDS011;9083;49.156;8.982;2022-11-15T07:46:23;6.07;;;3.80;;
17915;SDS011;9083;49.156;8.982;2022-11-15T07:48:50;5.80;;;4.53;;
17915;SDS011;9083;49.156;8.982;2022-11-15T07:51:17;6.07;;;3.90;;
17915;SDS011;9083;49.156;8.982;2022-11-15T07:53:44;7.00;;;4.77;;
17915;SDS011;9083;49.156;8.982;2022-11-15T07:56:11;10.10;;;4.77;;
17915;SDS011;9083;49.156;8.982;2022-11-15T07:58:37;13.40;;;5.63;;
17915;SDS011;9083;49.156;8.982;2022-11-15T08:01:04;12.40;;;6.97;;
17915;SDS011;9083;49.156;8.982;2022-11-15T08:03:31;10.37;;;6.17;;
17915;SDS011;9083;49.156;8.982;2022-11-15T08:05:57;11.93;;;6.13;;
17915;SDS011;9083;49.156;8.982;2022-11-15T08:08:25;11.77;;;6.27;;
17915;SDS011;9083;49.156;8.982;2022-11-15T08:10:52;7.90;;;5.43;;
17915;SDS011;9083;49.156;8.982;2022-11-15T08:13:18;10.30;;;5.57;;
17915;SDS011;9083;49.156;8.982;2022-11-15T08:15:46;15.13;;;5.70;;
17915;SDS011;9083;49.156;8.982;2022-11-15T08:18:14;11.03;;;4.80;;
17915;SDS011;9083;49.156;8.982;2022-11-15T08:20:41;14.63;;;5.37;;
17915;SDS011;9083;49.156;8.982;2022-11-15T08:23:09;6.60;;;4.90;;
17915;SDS011;9083;49.156;8.982;2022-11-15T08:25:38;5.43;;;4.87;;
17915;SDS011;9083;49.156;8.982;2022-11-15T08:28:04;7.97;;;5.90;;
17915;SDS011;9083;49.156;8.982;2022-11-15T08:30:34;7.70;;;4.73;;
17915;SDS011;9083;49.156;8.982;2022-11-15T08:33:01;6.83;;;5.00;;
17915;SDS011;9083;49.156;8.982;2022-11-15T08:35:27;7.93;;;4.77;;
17915;SDS011;9083;49.156;8.982;2022-11-15T08:37:54;7.40;;;4.53;;
17915;SDS011;9083;49.156;8.982;2022-11-15T08:40:20;10.10;;;4.27;;
17915;SDS011;9083;49.156;8.982;2022-11-15T08:42:48;7.63;;;4.20;;
17915;SDS011;9083;49.156;8.982;2022-11-15T08:45:15;10.33;;;4.53;;
17915;SDS011;9083;49.156;8.982;2022-11-15T08:47:41;6.53;;;3.63;;
17915;SDS011;9083;49.156;8.982;2022-11-15T08:50:08;5.37;;;3.20;;
17915;SDS011;9083;49.156;8.982;2022-11-15T08:52:34;8.07;;;3.73;;
17915;SDS011;9083;49.156;8.982;2022-11-15T08:55:01;6.80;;;3.43;;
17915;SDS011;9083;49.156;8.982;2022-11-15T08:57:28;5.97;;;3.40;;
17915;SDS011;9083;49.156;8.982;2022-11-15T08:59:56;8.60;;;3.83;;
17915;SDS011;9083;49.156;8.982;2022-11-15T09:02:25;6.83;;;4.23;;
17915;SDS011;9083;49.156;8.982;2022-11-15T09:04:51;11.53;;;5.07;;
17915;SDS011;9083;49.156;8.982;2022-11-15T09:07:18;13.27;;;4.80;;
17915;SDS011;9083;49.156;8.982;2022-11-15T09:09:44;11.17;;;4.43;;
17915;SDS011;9083;49.156;8.982;2022-11-15T09:12:11;10.17;;;3.97;;
17915;SDS011;9083;49.156;8.982;2022-11-15T09:14:37;6.23;;;4.00;;
17915;SDS011;9083;49.156;8.982;2022-11-15T09:17:08;11.73;;;3.90;;
17915;SDS011;9083;49.156;8.982;2022-11-15T09:19:34;9.97;;;3.87;;
17915;SDS011;9083;49.156;8.982;2022-11-15T09:22:01;9.20;;;4.13;;
17915;SDS011;9083;49.156;8.982;2022-11-15T09:24:31;8.43;;;3.80;;
17915;SDS011;9083;49.156;8.982;2022-11-15T09:26:57;11.37;;;3.80;;
17915;SDS011;9083;49.156;8.982;2022-11-15T09:29:24;10.80;;;3.60;;
17915;SDS011;9083;49.156;8.982;2022-11-15T09:31:51;10.43;;;4.00;;
17915;SDS011;9083;49.156;8.982;2022-11-15T09:34:19;6.03;;;3.47;;
17915;SDS011;9083;49.156;8.982;2022-11-15T09:36:46;9.97;;;3.37;;
17915;SDS011;9083;49.156;8.982;2022-11-15T09:39:12;4.83;;;3.33;;
17915;SDS011;9083;49.156;8.982;2022-11-15T09:41:54;7.23;;;3.30;;
17915;SDS011;9083;49.156;8.982;2022-11-15T09:44:26;5.57;;;3.23;;
17915;SDS011;9083;49.156;8.982;2022-11-15T09:46:59;19.97;;;4.20;;
17915;SDS011;9083;49.156;8.982;2022-11-15T09:49:29;10.60;;;3.53;;
17915;SDS011;9083;49.156;8.982;2022-11-15T09:51:55;7.37;;;3.80;;
17915;SDS011;9083;49.156;8.982;2022-11-15T09:54:25;39.17;;;5.93;;
17915;SDS011;9083;49.156;8.982;2022-11-15T09:56:53;4.77;;;3.37;;
17915;SDS011;9083;49.156;8.982;2022-11-15T09:59:33;11.43;;;3.90;;
17915;SDS011;9083;49.156;8.982;2022-11-15T10:02:08;21.20;;;4.07;;
17915;SDS011;9083;49.156;8.982;2022-11-15T10:04:37;15.17;;;4.07;;
17915;SDS011;9083;49.156;8.982;2022-11-15T10:07:10;8.57;;;3.33;;
17915;SDS011;9083;49.156;8.982;2022-11-15T10:09:41;26.70;;;5.27;;
17915;SDS011;9083;49.156;8.982;2022-11-15T10:12:09;13.60;;;4.90;;
17915;SDS011;9083;49.156;8.982;2022-11-15T10:14:35;40.77;;;6.33;;
17915;SDS011;9083;49.156;8.982;2022-11-15T10:19:49;6.20;;;3.70;;
17915;SDS011;9083;49.156;8.982;2022-11-15T10:22:21;10.33;;;4.53;;
17915;SDS011;9083;49.156;8.982;2022-11-15T10:24:51;23.43;;;4.40;;
17915;SDS011;9083;49.156;8.982;2022-11-15T10:27:18;6.70;;;3.70;;
17915;SDS011;9083;49.156;8.982;2022-11-15T10:29:45;16.73;;;3.87;;
17915;SDS011;9083;49.156;8.982;2022-11-15T10:32:12;10.27;;;3.40;;
17915;SDS011;9083;49.156;8.982;2022-11-15T10:34:40;8.43;;;3.10;;
17915;SDS011;9083;49.156;8.982;2022-11-15T10:37:07;8.67;;;4.13;;
17915;SDS011;9083;49.156;8.982;2022-11-15T10:39:34;25.17;;;5.03;;
17915;SDS011;9083;49.156;8.982;2022-11-15T10:42:14;14.83;;;4.33;;
17915;SDS011;9083;49.156;8.982;2022-11-15T10:44:42;103.40;;;12.07;;
17915;SDS011;9083;49.156;8.982;2022-11-15T10:47:23;14.63;;;4.07;;
17915;SDS011;9083;49.156;8.982;2022-11-15T10:49:53;31.87;;;4.67;;
17915;SDS011;9083;49.156;8.982;2022-11-15T10:52:25;8.13;;;3.23;;
17915;SDS011;9083;49.156;8.982;2022-11-15T10:54:53;36.10;;;5.60;;
17915;SDS011;9083;49.156;8.982;2022-11-15T10:57:20;44.53;;;6.63;;
17915;SDS011;9083;49.156;8.982;2022-11-15T10:59:48;24.87;;;4.33;;
17915;SDS011;9083;49.156;8.982;2022-11-15T11:02:29;14.83;;;3.67;;
17915;SDS011;9083;49.156;8.982;2022-11-15T11:04:56;28.33;;;5.20;;
17915;SDS011;9083;49.156;8.982;2022-11-15T11:07:25;50.27;;;5.27;;
17915;SDS011;9083;49.156;8.982;2022-11-15T11:09:56;72.30;;;8.87;;
17915;SDS011;9083;49.156;8.982;2022-11-15T11:12:26;22.60;;;4.50;;
17915;SDS011;9083;49.156;8.982;2022-11-15T11:14:53;14.60;;;3.53;;
17915;SDS011;9083;49.156;8.982;2022-11-15T11:17:21;17.33;;;3.73;;
17915;SDS011;9083;49.156;8.982;2022-11-15T11:19:54;12.57;;;3.93;;
17915;SDS011;9083;49.156;8.982;2022-11-15T11:22:23;18.73;;;4.67;;
17915;SDS011;9083;49.156;8.982;2022-11-15T11:24:56;18.07;;;4.27;;
17915;SDS011;9083;49.156;8.982;2022-11-15T11:27:29;48.17;;;6.43;;
17915;SDS011;9083;49.156;8.982;2022-11-15T11:30:03;17.83;;;3.90;;
17915;SDS011;9083;49.156;8.982;2022-11-15T11:32:40;18.37;;;3.53;;
17915;SDS011;9083;49.156;8.982;2022-11-15T11:35:11;32.27;;;5.27;;
17915;SDS011;9083;49.156;8.982;2022-11-15T11:37:40;61.93;;;7.93;;
17915;SDS011;9083;49.156;8.982;2022-11-15T11:40:16;10.97;;;3.37;;
17915;SDS011;9083;49.156;8.982;2022-11-15T11:42:46;13.30;;;4.33;;
17915;SDS011;9083;49.156;8.982;2022-11-15T11:45:20;27.13;;;5.87;;
17915;SDS011;9083;49.156;8.982;2022-11-15T11:47:51;14.50;;;4.37;;
17915;SDS011;9083;49.156;8.982;2022-11-15T11:50:18;12.90;;;3.83;;
17915;SDS011;9083;49.156;8.982;2022-11-15T11:52:54;31.63;;;5.57;;
17915;SDS011;9083;49.156;8.982;2022-11-15T11:55:24;5.13;;;3.30;;
17915;SDS011;9083;49.156;8.982;2022-11-15T11:57:53;9.27;;;4.10;;
17915;SDS011;9083;49.156;8.982;2022-11-15T12:00:22;15.53;;;4.93;;
17915;SDS011;9083;49.156;8.982;2022-11-15T12:03:01;31.07;;;6.27;;
17915;SDS011;9083;49.156;8.982;2022-11-15T12:05:30;7.40;;;3.70;;
17915;SDS011;9083;49.156;8.982;2022-11-15T12:08:00;11.80;;;3.63;;
17915;SDS011;9083;49.156;8.982;2022-11-15T12:10:30;10.67;;;3.60;;
17915;SDS011;9083;49.156;8.982;2022-11-15T12:12:59;10.60;;;4.23;;
17915;SDS011;9083;49.156;8.982;2022-11-15T12:15:27;32.50;;;6.63;;
17915;SDS011;9083;49.156;8.982;2022-11-15T12:17:54;64.40;;;9.37;;
17915;SDS011;9083;49.156;8.982;2022-11-15T12:20:22;25.77;;;6.23;;
17915;SDS011;9083;49.156;8.982;2022-11-15T12:22:52;12.37;;;4.90;;
17915;SDS011;9083;49.156;8.982;2022-11-15T12:25:21;14.53;;;5.13;;
17915;SDS011;9083;49.156;8.982;2022-11-15T12:27:51;15.03;;;3.73;;
17915;SDS011;9083;49.156;8.982;2022-11-15T12:30:19;9.70;;;3.30;;
17915;SDS011;9083;49.156;8.982;2022-11-15T12:32:50;9.80;;;4.73;;
17915;SDS011;9083;49.156;8.982;2022-11-15T12:35:21;20.77;;;4.87;;
17915;SDS011;9083;49.156;8.982;2022-11-15T12:37:49;6.23;;;3.27;;
17915;SDS011;9083;49.156;8.982;2022-11-15T12:40:25;11.60;;;5.50;;
17915;SDS011;9083;49.156;8.982;2022-11-15T12:43:04;15.67;;;4.47;;
17915;SDS011;9083;49.156;8.982;2022-11-15T12:45:32;19.90;;;6.00;;
17915;SDS011;9083;49.156;8.982;2022-11-15T12:50:53;10.17;;;4.80;;
17915;SDS011;9083;49.156;8.982;2022-11-15T12:53:29;17.33;;;4.23;;
17915;SDS011;9083;49.156;8.982;2022-11-15T12:58:43;38.80;;;6.43;;
17915;SDS011;9083;49.156;8.982;2022-11-15T13:01:14;73.97;;;11.23;;
17915;SDS011;9083;49.156;8.982;2022-11-15T13:04:21;20.63;;;5.90;;
17915;SDS011;9083;49.156;8.982;2022-11-15T13:06:50;29.07;;;6.00;;
17915;SDS011;9083;49.156;8.982;2022-11-15T13:12:02;12.07;;;4.83;;
17915;SDS011;9083;49.156;8.982;2022-11-15T13:14:40;24.73;;;8.83;;
17915;SDS011;9083;49.156;8.982;2022-11-15T13:22:40;27.50;;;8.00;;
17915;SDS011;9083;49.156;8.982;2022-11-15T13:25:40;24.73;;;6.23;;
17915;SDS011;9083;49.156;8.982;2022-11-15T13:28:18;25.67;;;7.77;;
17915;SDS011;9083;49.156;8.982;2022-11-15T13:30:50;19.40;;;11.63;;
17915;SDS011;9083;49.156;8.982;2022-11-15T13:33:17;38.33;;;9.07;;
17915;SDS011;9083;49.156;8.982;2022-11-15T13:35:45;11.13;;;6.30;;
17915;SDS011;9083;49.156;8.982;2022-11-15T13:38:17;14.13;;;6.97;;
17915;SDS011;9083;49.156;8.982;2022-11-15T13:40:44;42.73;;;6.97;;
17915;SDS011;9083;49.156;8.982;2022-11-15T13:43:17;22.77;;;5.40;;
17915;SDS011;9083;49.156;8.982;2022-11-15T13:48:32;12.37;;;5.63;;
17915;SDS011;9083;49.156;8.982;2022-11-15T13:50:59;37.40;;;7.63;;
17915;SDS011;9083;49.156;8.982;2022-11-15T13:53:26;22.80;;;6.20;;
17915;SDS011;9083;49.156;8.982;2022-11-15T13:55:52;18.03;;;4.83;;
17915;SDS011;9083;49.156;8.982;2022-11-15T13:58:20;11.67;;;4.57;;
17915;SDS011;9083;49.156;8.982;2022-11-15T14:00:46;43.73;;;7.77;;
17915;SDS011;9083;49.156;8.982;2022-11-15T14:03:16;68.20;;;9.00;;
17915;SDS011;9083;49.156;8.982;2022-11-15T14:05:45;14.23;;;5.17;;
17915;SDS011;9083;49.156;8.982;2022-11-15T14:08:20;21.00;;;5.93;;
17915;SDS011;9083;49.156;8.982;2022-11-15T14:10:47;35.73;;;6.80;;
17915;SDS011;9083;49.156;8.982;2022-11-15T14:13:26;25.87;;;6.03;;
17915;SDS011;9083;49.156;8.982;2022-11-15T14:15:52;12.27;;;5.60;;
17915;SDS011;9083;49.156;8.982;2022-11-15T14:21:06;18.67;;;5.03;;
17915;SDS011;9083;49.156;8.982;2022-11-15T14:23:33;18.30;;;5.63;;
17915;SDS011;9083;49.156;8.982;2022-11-15T14:25:59;55.40;;;8.57;;
17915;SDS011;9083;49.156;8.982;2022-11-15T14:28:30;18.13;;;5.70;;
17915;SDS011;9083;49.156;8.982;2022-11-15T14:30:58;24.67;;;5.37;;
17915;SDS011;9083;49.156;8.982;2022-11-15T14:33:25;69.37;;;8.97;;
17915;SDS011;9083;49.156;8.982;2022-11-15T14:35:53;19.17;;;4.97;;
17915;SDS011;9083;49.156;8.982;2022-11-15T14:38:22;7.87;;;3.37;;
17915;SDS011;9083;49.156;8.982;2022-11-15T14:40:49;9.70;;;3.57;;
17915;SDS011;9083;49.156;8.982;2022-11-15T14:43:15;7.50;;;3.90;;
17915;SDS011;9083;49.156;8.982;2022-11-15T14:45:42;6.90;;;4.03;;
17915;SDS011;9083;49.156;8.982;2022-11-15T14:48:08;6.30;;;3.40;;
17915;SDS011;9083;49.156;8.982;2022-11-15T14:50:35;9.87;;;3.67;;
17915;SDS011;9083;49.156;8.982;2022-11-15T14:53:02;10.10;;;4.47;;
17915;SDS011;9083;49.156;8.982;2022-11-15T14:55:30;8.80;;;3.43;;
17915;SDS011;9083;49.156;8.982;2022-11-15T14:58:00;11.47;;;3.97;;
17915;SDS011;9083;49.156;8.982;2022-11-15T15:00:27;7.53;;;3.67;;
17915;SDS011;9083;49.156;8.982;2022-11-15T15:02:54;9.50;;;4.93;;
17915;SDS011;9083;49.156;8.982;2022-11-15T15:05:21;9.97;;;3.93;;
17915;SDS011;9083;49.156;8.982;2022-11-15T15:07:48;16.40;;;4.60;;
17915;SDS011;9083;49.156;8.982;2022-11-15T15:10:16;7.30;;;3.57;;
17915;SDS011;9083;49.156;8.982;2022-11-15T15:12:44;9.13;;;4.20;;
17915;SDS011;9083;49.156;8.982;2022-11-15T15:15:12;7.57;;;3.97;;
17915;SDS011;9083;49.156;8.982;2022-11-15T15:17:39;5.67;;;3.93;;
17915;SDS011;9083;49.156;8.982;2022-11-15T15:20:06;4.43;;;3.60;;
17915;SDS011;9083;49.156;8.982;2022-11-15T15:22:33;12.70;;;4.57;;
17915;SDS011;9083;49.156;8.982;2022-11-15T15:24:59;21.00;;;5.33;;
17915;SDS011;9083;49.156;8.982;2022-11-15T15:27:26;11.40;;;4.73;;
17915;SDS011;9083;49.156;8.982;2022-11-15T15:29:54;7.07;;;4.40;;
17915;SDS011;9083;49.156;8.982;2022-11-15T15:32:20;14.53;;;4.60;;